sensor_id;sensor_type;location;lat;lon;timestamp;P1;durP1;ratioP1;P2;durP2;ratioP2
4812;SDS011;2420;51.202;8.698;2023-08-31T00:00:01;9.25;;;7.10;;
4812;SDS011;2420;51.202;8.698;2023-08-31T00:02:29;12.93;;;8.40;;
4812;SDS011;2420;51.202;8.698;2023-08-31T00:04:55;10.57;;;7.68;;
4812;SDS011;2420;51.202;8.698;2023-08-31T00:07:21;9.90;;;7.35;;
4812;SDS011;2420;51.202;8.698;2023-08-31T00:09:46;9.95;;;7.82;;
4812;SDS011;2420;51.202;8.698;2023-08-31T00:12:12;11.38;;;7.82;;
4812;SDS011;2420;51.202;8.698;2023-08-31T00:14:38;11.85;;;8.07;;
4812;SDS011;2420;51.202;8.698;2023-08-31T00:17:04;8.73;;;7.63;;
4812;SDS011;2420;51.202;8.698;2023-08-31T00:19:30;10.20;;;7.78;;
4812;SDS011;2420;51.202;8.698;2023-08-31T00:21:55;9.98;;;8.10;;
4812;SDS011;2420;51.202;8.698;2023-08-31T00:24:21;12.70;;;8.52;;
4812;SDS011;2420;51.202;8.698;2023-08-31T00:26:47;10.82;;;7.70;;
4812;SDS011;2420;51.202;8.698;2023-08-31T00:29:16;13.85;;;8.13;;
4812;SDS011;2420;51.202;8.698;2023-08-31T00:31:41;10.57;;;7.10;;
4812;SDS011;2420;51.202;8.698;2023-08-31T00:34:09;9.98;;;6.97;;
4812;SDS011;2420;51.202;8.698;2023-08-31T00:36:36;12.75;;;8.35;;
4812;SDS011;2420;51.202;8.698;2023-08-31T00:39:03;11.13;;;8.38;;
4812;SDS011;2420;51.202;8.698;2023-08-31T00:41:35;9.20;;;7.68;;
4812;SDS011;2420;51.202;8.698;2023-08-31T00:44:01;10.93;;;8.65;;
4812;SDS011;2420;51.202;8.698;2023-08-31T00:46:29;12.20;;;8.25;;
4812;SDS011;2420;51.202;8.698;2023-08-31T00:48:56;10.93;;;8.35;;
4812;SDS011;2420;51.202;8.698;2023-08-31T00:51:22;10.20;;;7.82;;
4812;SDS011;2420;51.202;8.698;2023-08-31T00:53:48;10.02;;;7.70;;
4812;SDS011;2420;51.202;8.698;2023-08-31T00:56:18;11.18;;;8.00;;
4812;SDS011;2420;51.202;8.698;2023-08-31T00:58:44;9.73;;;7.82;;
4812;SDS011;2420;51.202;8.698;2023-08-31T01:06:27;9.95;;;8.10;;
4812;SDS011;2420;51.202;8.698;2023-08-31T01:09:22;9.63;;;7.50;;
4812;SDS011;2420;51.202;8.698;2023-08-31T01:11:57;10.65;;;7.78;;
4812;SDS011;2420;51.202;8.698;2023-08-31T01:14:31;10.30;;;8.48;;
4812;SDS011;2420;51.202;8.698;2023-08-31T01:17:07;9.10;;;7.72;;
4812;SDS011;2420;51.202;8.698;2023-08-31T01:19:50;10.43;;;7.53;;
4812;SDS011;2420;51.202;8.698;2023-08-31T01:22:30;11.00;;;7.90;;
4812;SDS011;2420;51.202;8.698;2023-08-31T01:25:16;8.90;;;7.60;;
4812;SDS011;2420;51.202;8.698;2023-08-31T01:27:42;10.75;;;8.02;;
4812;SDS011;2420;51.202;8.698;2023-08-31T01:30:08;9.55;;;7.93;;
4812;SDS011;2420;51.202;8.698;2023-08-31T01:32:34;10.63;;;7.68;;
4812;SDS011;2420;51.202;8.698;2023-08-31T01:35:00;12.45;;;7.80;;
4812;SDS011;2420;51.202;8.698;2023-08-31T01:37:34;12.10;;;8.00;;
4812;SDS011;2420;51.202;8.698;2023-08-31T01:40:10;11.38;;;7.65;;
4812;SDS011;2420;51.202;8.698;2023-08-31T01:42:40;11.77;;;7.97;;
4812;SDS011;2420;51.202;8.698;2023-08-31T01:45:07;10.63;;;7.50;;
4812;SDS011;2420;51.202;8.698;2023-08-31T01:47:35;10.85;;;8.25;;
4812;SDS011;2420;51.202;8.698;2023-08-31T01:50:01;12.32;;;8.38;;
4812;SDS011;2420;51.202;8.698;2023-08-31T01:52:27;10.32;;;7.80;;
4812;SDS011;2420;51.202;8.698;2023-08-31T01:54:52;14.75;;;8.77;;
4812;SDS011;2420;51.202;8.698;2023-08-31T01:57:18;10.48;;;8.05;;
4812;SDS011;2420;51.202;8.698;2023-08-31T01:59:43;9.82;;;7.60;;
4812;SDS011;2420;51.202;8.698;2023-08-31T02:02:09;11.30;;;7.43;;
4812;SDS011;2420;51.202;8.698;2023-08-31T02:04:35;9.80;;;7.50;;
4812;SDS011;2420;51.202;8.698;2023-08-31T02:07:00;11.25;;;7.32;;
4812;SDS011;2420;51.202;8.698;2023-08-31T02:09:26;10.55;;;7.43;;
4812;SDS011;2420;51.202;8.698;2023-08-31T02:11:51;10.30;;;7.82;;
4812;SDS011;2420;51.202;8.698;2023-08-31T02:14:17;9.18;;;7.20;;
4812;SDS011;2420;51.202;8.698;2023-08-31T02:16:43;11.30;;;7.10;;
4812;SDS011;2420;51.202;8.698;2023-08-31T02:19:09;9.77;;;7.13;;
4812;SDS011;2420;51.202;8.698;2023-08-31T02:21:35;9.88;;;6.88;;
4812;SDS011;2420;51.202;8.698;2023-08-31T02:24:00;12.27;;;7.60;;
4812;SDS011;2420;51.202;8.698;2023-08-31T02:26:26;9.35;;;7.20;;
4812;SDS011;2420;51.202;8.698;2023-08-31T02:28:51;9.75;;;6.85;;
4812;SDS011;2420;51.202;8.698;2023-08-31T02:31:17;9.82;;;7.28;;
4812;SDS011;2420;51.202;8.698;2023-08-31T02:33:44;9.88;;;7.20;;
4812;SDS011;2420;51.202;8.698;2023-08-31T02:36:11;9.68;;;7.32;;
4812;SDS011;2420;51.202;8.698;2023-08-31T02:38:36;11.38;;;7.32;;
4812;SDS011;2420;51.202;8.698;2023-08-31T02:41:02;11.32;;;7.18;;
4812;SDS011;2420;51.202;8.698;2023-08-31T02:43:27;9.57;;;7.50;;
4812;SDS011;2420;51.202;8.698;2023-08-31T02:46:02;13.35;;;7.32;;
4812;SDS011;2420;51.202;8.698;2023-08-31T02:48:28;9.73;;;7.50;;
4812;SDS011;2420;51.202;8.698;2023-08-31T02:50:56;9.00;;;6.75;;
4812;SDS011;2420;51.202;8.698;2023-08-31T02:53:22;9.93;;;6.95;;
4812;SDS011;2420;51.202;8.698;2023-08-31T02:55:48;9.00;;;7.07;;
4812;SDS011;2420;51.202;8.698;2023-08-31T02:58:15;10.52;;;7.60;;
4812;SDS011;2420;51.202;8.698;2023-08-31T03:00:41;8.65;;;6.88;;
4812;SDS011;2420;51.202;8.698;2023-08-31T03:03:07;8.25;;;6.15;;
4812;SDS011;2420;51.202;8.698;2023-08-31T03:05:33;8.18;;;6.40;;
4812;SDS011;2420;51.202;8.698;2023-08-31T03:07:59;8.43;;;6.15;;
4812;SDS011;2420;51.202;8.698;2023-08-31T03:10:25;7.00;;;6.22;;
4812;SDS011;2420;51.202;8.698;2023-08-31T03:12:50;8.30;;;6.15;;
4812;SDS011;2420;51.202;8.698;2023-08-31T03:15:16;8.05;;;5.78;;
4812;SDS011;2420;51.202;8.698;2023-08-31T03:17:41;9.00;;;6.43;;
4812;SDS011;2420;51.202;8.698;2023-08-31T03:20:07;7.03;;;5.82;;
4812;SDS011;2420;51.202;8.698;2023-08-31T03:22:33;8.77;;;6.25;;
4812;SDS011;2420;51.202;8.698;2023-08-31T03:24:58;7.68;;;6.40;;
4812;SDS011;2420;51.202;8.698;2023-08-31T03:27:24;7.32;;;6.22;;
4812;SDS011;2420;51.202;8.698;2023-08-31T03:29:50;7.35;;;6.03;;
4812;SDS011;2420;51.202;8.698;2023-08-31T03:32:15;7.05;;;5.82;;
4812;SDS011;2420;51.202;8.698;2023-08-31T03:34:41;9.52;;;6.63;;
4812;SDS011;2420;51.202;8.698;2023-08-31T03:37:06;8.68;;;6.10;;
4812;SDS011;2420;51.202;8.698;2023-08-31T03:39:32;11.18;;;6.68;;
4812;SDS011;2420;51.202;8.698;2023-08-31T03:41:57;10.40;;;6.57;;
4812;SDS011;2420;51.202;8.698;2023-08-31T03:44:23;10.98;;;7.05;;
4812;SDS011;2420;51.202;8.698;2023-08-31T03:46:49;13.43;;;6.43;;
4812;SDS011;2420;51.202;8.698;2023-08-31T03:49:14;9.23;;;7.00;;
4812;SDS011;2420;51.202;8.698;2023-08-31T03:51:40;9.73;;;7.75;;
4812;SDS011;2420;51.202;8.698;2023-08-31T03:54:05;11.27;;;6.70;;
4812;SDS011;2420;51.202;8.698;2023-08-31T03:56:31;9.15;;;6.60;;
4812;SDS011;2420;51.202;8.698;2023-08-31T03:58:57;9.30;;;7.28;;
4812;SDS011;2420;51.202;8.698;2023-08-31T04:01:22;12.43;;;7.03;;
4812;SDS011;2420;51.202;8.698;2023-08-31T04:03:48;8.05;;;6.53;;
4812;SDS011;2420;51.202;8.698;2023-08-31T04:06:14;12.50;;;7.45;;
4812;SDS011;2420;51.202;8.698;2023-08-31T04:08:39;11.18;;;7.03;;
4812;SDS011;2420;51.202;8.698;2023-08-31T04:11:05;11.40;;;7.35;;
4812;SDS011;2420;51.202;8.698;2023-08-31T04:13:30;8.65;;;6.60;;
4812;SDS011;2420;51.202;8.698;2023-08-31T04:15:56;9.32;;;7.32;;
4812;SDS011;2420;51.202;8.698;2023-08-31T04:18:21;10.82;;;7.57;;
4812;SDS011;2420;51.202;8.698;2023-08-31T04:20:50;11.18;;;7.93;;
4812;SDS011;2420;51.202;8.698;2023-08-31T04:23:17;11.90;;;8.85;;
4812;SDS011;2420;51.202;8.698;2023-08-31T04:25:44;12.13;;;8.75;;
4812;SDS011;2420;51.202;8.698;2023-08-31T04:28:12;13.88;;;9.68;;
4812;SDS011;2420;51.202;8.698;2023-08-31T04:30:39;16.00;;;12.57;;
4812;SDS011;2420;51.202;8.698;2023-08-31T04:33:05;20.35;;;14.52;;
4812;SDS011;2420;51.202;8.698;2023-08-31T04:35:32;20.27;;;14.52;;
4812;SDS011;2420;51.202;8.698;2023-08-31T04:37:57;12.63;;;10.75;;
4812;SDS011;2420;51.202;8.698;2023-08-31T04:40:23;12.43;;;8.88;;
4812;SDS011;2420;51.202;8.698;2023-08-31T04:42:49;11.73;;;8.82;;
4812;SDS011;2420;51.202;8.698;2023-08-31T04:45:15;12.98;;;9.95;;
4812;SDS011;2420;51.202;8.698;2023-08-31T04:47:41;12.57;;;10.05;;
4812;SDS011;2420;51.202;8.698;2023-08-31T04:50:07;10.85;;;7.85;;
4812;SDS011;2420;51.202;8.698;2023-08-31T04:52:33;9.15;;;7.43;;
4812;SDS011;2420;51.202;8.698;2023-08-31T04:55:00;11.57;;;8.35;;
4812;SDS011;2420;51.202;8.698;2023-08-31T04:57:28;12.20;;;8.65;;
4812;SDS011;2420;51.202;8.698;2023-08-31T04:59:54;11.55;;;8.48;;
4812;SDS011;2420;51.202;8.698;2023-08-31T05:02:19;12.60;;;8.95;;
4812;SDS011;2420;51.202;8.698;2023-08-31T05:04:45;11.88;;;8.75;;
4812;SDS011;2420;51.202;8.698;2023-08-31T05:07:11;11.00;;;7.40;;
4812;SDS011;2420;51.202;8.698;2023-08-31T05:09:36;12.38;;;7.97;;
4812;SDS011;2420;51.202;8.698;2023-08-31T05:12:02;10.48;;;7.93;;
4812;SDS011;2420;51.202;8.698;2023-08-31T05:14:28;12.32;;;8.25;;
4812;SDS011;2420;51.202;8.698;2023-08-31T05:16:54;12.38;;;7.80;;
4812;SDS011;2420;51.202;8.698;2023-08-31T05:19:20;9.77;;;7.40;;
4812;SDS011;2420;51.202;8.698;2023-08-31T05:21:46;9.07;;;7.82;;
4812;SDS011;2420;51.202;8.698;2023-08-31T05:24:11;10.95;;;7.90;;
4812;SDS011;2420;51.202;8.698;2023-08-31T05:26:38;8.90;;;6.88;;
4812;SDS011;2420;51.202;8.698;2023-08-31T05:29:04;9.15;;;7.72;;
4812;SDS011;2420;51.202;8.698;2023-08-31T05:31:30;9.90;;;7.38;;
4812;SDS011;2420;51.202;8.698;2023-08-31T05:33:56;9.68;;;6.82;;
4812;SDS011;2420;51.202;8.698;2023-08-31T05:36:21;10.50;;;7.68;;
4812;SDS011;2420;51.202;8.698;2023-08-31T05:38:47;10.10;;;7.18;;
4812;SDS011;2420;51.202;8.698;2023-08-31T05:41:12;10.40;;;7.53;;
4812;SDS011;2420;51.202;8.698;2023-08-31T05:43:38;10.32;;;7.10;;
4812;SDS011;2420;51.202;8.698;2023-08-31T05:46:07;8.60;;;6.28;;
4812;SDS011;2420;51.202;8.698;2023-08-31T05:48:33;8.60;;;6.15;;
4812;SDS011;2420;51.202;8.698;2023-08-31T05:50:59;6.90;;;5.97;;
4812;SDS011;2420;51.202;8.698;2023-08-31T05:53:25;6.90;;;5.93;;
4812;SDS011;2420;51.202;8.698;2023-08-31T05:55:51;8.45;;;5.80;;
4812;SDS011;2420;51.202;8.698;2023-08-31T05:58:19;8.45;;;6.60;;
4812;SDS011;2420;51.202;8.698;2023-08-31T06:00:44;7.47;;;5.85;;
4812;SDS011;2420;51.202;8.698;2023-08-31T06:03:10;7.82;;;6.45;;
4812;SDS011;2420;51.202;8.698;2023-08-31T06:05:36;11.00;;;6.30;;
4812;SDS011;2420;51.202;8.698;2023-08-31T06:08:01;7.38;;;6.20;;
4812;SDS011;2420;51.202;8.698;2023-08-31T06:10:27;7.68;;;6.53;;
4812;SDS011;2420;51.202;8.698;2023-08-31T06:12:54;8.93;;;6.18;;
4812;SDS011;2420;51.202;8.698;2023-08-31T06:15:19;10.85;;;6.40;;
4812;SDS011;2420;51.202;8.698;2023-08-31T06:17:45;8.02;;;6.35;;
4812;SDS011;2420;51.202;8.698;2023-08-31T06:20:10;6.63;;;5.80;;
4812;SDS011;2420;51.202;8.698;2023-08-31T06:22:36;8.55;;;5.82;;
4812;SDS011;2420;51.202;8.698;2023-08-31T06:25:02;6.00;;;5.40;;
4812;SDS011;2420;51.202;8.698;2023-08-31T06:27:29;7.60;;;6.00;;
4812;SDS011;2420;51.202;8.698;2023-08-31T06:29:54;9.80;;;5.95;;
4812;SDS011;2420;51.202;8.698;2023-08-31T06:32:21;9.25;;;6.38;;
4812;SDS011;2420;51.202;8.698;2023-08-31T06:34:46;7.43;;;6.05;;
4812;SDS011;2420;51.202;8.698;2023-08-31T06:37:12;8.63;;;6.57;;
4812;SDS011;2420;51.202;8.698;2023-08-31T06:39:38;10.68;;;6.95;;
4812;SDS011;2420;51.202;8.698;2023-08-31T06:42:04;7.75;;;6.72;;
4812;SDS011;2420;51.202;8.698;2023-08-31T06:44:30;8.10;;;5.78;;
4812;SDS011;2420;51.202;8.698;2023-08-31T06:46:55;7.88;;;5.95;;
4812;SDS011;2420;51.202;8.698;2023-08-31T06:49:24;7.97;;;5.55;;
4812;SDS011;2420;51.202;8.698;2023-08-31T06:51:50;7.93;;;5.38;;
4812;SDS011;2420;51.202;8.698;2023-08-31T06:54:15;9.43;;;5.43;;
4812;SDS011;2420;51.202;8.698;2023-08-31T06:56:41;8.40;;;5.60;;
4812;SDS011;2420;51.202;8.698;2023-08-31T06:59:07;6.90;;;5.15;;
4812;SDS011;2420;51.202;8.698;2023-08-31T07:01:32;6.45;;;5.47;;
4812;SDS011;2420;51.202;8.698;2023-08-31T07:03:58;8.27;;;5.97;;
4812;SDS011;2420;51.202;8.698;2023-08-31T07:06:24;6.50;;;5.40;;
4812;SDS011;2420;51.202;8.698;2023-08-31T07:08:49;8.05;;;5.80;;
4812;SDS011;2420;51.202;8.698;2023-08-31T07:11:16;6.88;;;5.60;;
4812;SDS011;2420;51.202;8.698;2023-08-31T07:13:42;7.13;;;5.70;;
4812;SDS011;2420;51.202;8.698;2023-08-31T07:16:07;6.38;;;5.60;;
4812;SDS011;2420;51.202;8.698;2023-08-31T07:18:33;6.68;;;5.65;;
4812;SDS011;2420;51.202;8.698;2023-08-31T07:20:59;8.07;;;5.80;;
4812;SDS011;2420;51.202;8.698;2023-08-31T07:23:25;9.95;;;5.75;;
4812;SDS011;2420;51.202;8.698;2023-08-31T07:25:50;9.40;;;6.15;;
4812;SDS011;2420;51.202;8.698;2023-08-31T07:28:16;7.55;;;5.55;;
4812;SDS011;2420;51.202;8.698;2023-08-31T07:30:42;7.80;;;5.65;;
4812;SDS011;2420;51.202;8.698;2023-08-31T07:33:08;8.18;;;5.93;;
4812;SDS011;2420;51.202;8.698;2023-08-31T07:35:34;7.80;;;5.13;;
4812;SDS011;2420;51.202;8.698;2023-08-31T07:38:00;9.05;;;5.25;;
4812;SDS011;2420;51.202;8.698;2023-08-31T07:40:25;6.80;;;5.50;;
4812;SDS011;2420;51.202;8.698;2023-08-31T07:42:51;6.55;;;4.95;;
4812;SDS011;2420;51.202;8.698;2023-08-31T07:45:17;6.38;;;5.10;;
4812;SDS011;2420;51.202;8.698;2023-08-31T07:47:42;6.38;;;4.82;;
4812;SDS011;2420;51.202;8.698;2023-08-31T07:50:08;7.90;;;4.43;;
4812;SDS011;2420;51.202;8.698;2023-08-31T07:52:34;5.22;;;4.55;;
4812;SDS011;2420;51.202;8.698;2023-08-31T07:55:00;4.97;;;4.10;;
4812;SDS011;2420;51.202;8.698;2023-08-31T07:57:25;6.93;;;4.53;;
4812;SDS011;2420;51.202;8.698;2023-08-31T07:59:51;6.55;;;4.75;;
4812;SDS011;2420;51.202;8.698;2023-08-31T08:02:17;4.85;;;3.80;;
4812;SDS011;2420;51.202;8.698;2023-08-31T08:04:42;6.13;;;4.03;;
4812;SDS011;2420;51.202;8.698;2023-08-31T08:07:10;8.40;;;3.80;;
4812;SDS011;2420;51.202;8.698;2023-08-31T08:09:35;6.68;;;4.13;;
4812;SDS011;2420;51.202;8.698;2023-08-31T08:12:01;4.95;;;3.92;;
4812;SDS011;2420;51.202;8.698;2023-08-31T08:14:27;5.78;;;4.30;;
4812;SDS011;2420;51.202;8.698;2023-08-31T08:16:53;6.40;;;4.22;;
4812;SDS011;2420;51.202;8.698;2023-08-31T08:19:22;5.15;;;3.97;;
4812;SDS011;2420;51.202;8.698;2023-08-31T08:21:49;7.38;;;4.10;;
4812;SDS011;2420;51.202;8.698;2023-08-31T08:24:17;6.70;;;4.10;;
4812;SDS011;2420;51.202;8.698;2023-08-31T08:26:43;5.00;;;4.10;;
4812;SDS011;2420;51.202;8.698;2023-08-31T08:29:09;6.65;;;4.32;;
4812;SDS011;2420;51.202;8.698;2023-08-31T08:31:34;5.80;;;4.10;;
4812;SDS011;2420;51.202;8.698;2023-08-31T08:34:00;8.77;;;4.20;;
4812;SDS011;2420;51.202;8.698;2023-08-31T08:36:26;5.15;;;4.22;;
4812;SDS011;2420;51.202;8.698;2023-08-31T08:38:52;5.13;;;4.20;;
4812;SDS011;2420;51.202;8.698;2023-08-31T08:41:23;7.30;;;4.28;;
4812;SDS011;2420;51.202;8.698;2023-08-31T08:43:50;4.07;;;3.50;;
4812;SDS011;2420;51.202;8.698;2023-08-31T08:46:17;5.28;;;3.85;;
4812;SDS011;2420;51.202;8.698;2023-08-31T08:48:43;6.18;;;4.00;;
4812;SDS011;2420;51.202;8.698;2023-08-31T08:51:10;12.80;;;6.03;;
4812;SDS011;2420;51.202;8.698;2023-08-31T08:53:37;8.77;;;4.05;;
4812;SDS011;2420;51.202;8.698;2023-08-31T08:56:04;6.70;;;3.92;;
4812;SDS011;2420;51.202;8.698;2023-08-31T08:58:30;5.72;;;3.97;;
4812;SDS011;2420;51.202;8.698;2023-08-31T09:00:55;5.45;;;4.20;;
4812;SDS011;2420;51.202;8.698;2023-08-31T09:03:22;5.72;;;3.50;;
4812;SDS011;2420;51.202;8.698;2023-08-31T09:05:50;6.00;;;4.18;;
4812;SDS011;2420;51.202;8.698;2023-08-31T09:08:25;5.65;;;4.20;;
4812;SDS011;2420;51.202;8.698;2023-08-31T09:10:51;4.55;;;3.60;;
4812;SDS011;2420;51.202;8.698;2023-08-31T09:13:18;4.72;;;3.40;;
4812;SDS011;2420;51.202;8.698;2023-08-31T09:18:16;4.50;;;3.88;;
4812;SDS011;2420;51.202;8.698;2023-08-31T09:20:48;5.18;;;3.47;;
4812;SDS011;2420;51.202;8.698;2023-08-31T09:23:14;4.50;;;3.50;;
4812;SDS011;2420;51.202;8.698;2023-08-31T09:25:44;7.78;;;3.60;;
4812;SDS011;2420;51.202;8.698;2023-08-31T09:28:13;4.32;;;3.47;;
4812;SDS011;2420;51.202;8.698;2023-08-31T09:30:39;5.50;;;3.30;;
4812;SDS011;2420;51.202;8.698;2023-08-31T09:33:09;5.45;;;3.35;;
4812;SDS011;2420;51.202;8.698;2023-08-31T09:35:38;3.63;;;3.25;;
4812;SDS011;2420;51.202;8.698;2023-08-31T09:38:07;5.30;;;3.20;;
4812;SDS011;2420;51.202;8.698;2023-08-31T09:40:33;4.47;;;3.28;;
4812;SDS011;2420;51.202;8.698;2023-08-31T09:42:59;3.60;;;2.90;;
4812;SDS011;2420;51.202;8.698;2023-08-31T09:45:25;5.22;;;2.92;;
4812;SDS011;2420;51.202;8.698;2023-08-31T09:47:54;3.75;;;3.05;;
4812;SDS011;2420;51.202;8.698;2023-08-31T09:50:20;3.50;;;2.95;;
4812;SDS011;2420;51.202;8.698;2023-08-31T09:52:48;3.63;;;3.00;;
4812;SDS011;2420;51.202;8.698;2023-08-31T09:55:19;3.30;;;3.00;;
4812;SDS011;2420;51.202;8.698;2023-08-31T09:57:46;5.60;;;3.33;;
4812;SDS011;2420;51.202;8.698;2023-08-31T10:00:13;4.22;;;2.80;;
4812;SDS011;2420;51.202;8.698;2023-08-31T10:02:41;5.95;;;2.83;;
4812;SDS011;2420;51.202;8.698;2023-08-31T10:05:07;2.85;;;2.55;;
4812;SDS011;2420;51.202;8.698;2023-08-31T10:07:33;3.70;;;2.80;;
4812;SDS011;2420;51.202;8.698;2023-08-31T10:09:59;3.10;;;2.80;;
4812;SDS011;2420;51.202;8.698;2023-08-31T10:12:26;3.47;;;2.90;;
4812;SDS011;2420;51.202;8.698;2023-08-31T10:14:52;3.85;;;3.03;;
4812;SDS011;2420;51.202;8.698;2023-08-31T10:17:19;4.70;;;3.92;;
4812;SDS011;2420;51.202;8.698;2023-08-31T10:19:46;3.65;;;2.90;;
4812;SDS011;2420;51.202;8.698;2023-08-31T10:22:12;3.63;;;2.67;;
4812;SDS011;2420;51.202;8.698;2023-08-31T10:24:56;3.47;;;2.70;;
4812;SDS011;2420;51.202;8.698;2023-08-31T10:27:25;4.93;;;2.83;;
4812;SDS011;2420;51.202;8.698;2023-08-31T10:29:52;3.38;;;2.70;;
4812;SDS011;2420;51.202;8.698;2023-08-31T10:32:17;3.33;;;2.75;;
4812;SDS011;2420;51.202;8.698;2023-08-31T10:34:43;2.65;;;2.45;;
4812;SDS011;2420;51.202;8.698;2023-08-31T10:37:19;3.83;;;2.70;;
4812;SDS011;2420;51.202;8.698;2023-08-31T10:39:46;3.60;;;2.58;;
4812;SDS011;2420;51.202;8.698;2023-08-31T10:42:12;4.43;;;2.78;;
4812;SDS011;2420;51.202;8.698;2023-08-31T10:44:37;4.80;;;3.08;;
4812;SDS011;2420;51.202;8.698;2023-08-31T10:47:08;3.70;;;2.95;;
4812;SDS011;2420;51.202;8.698;2023-08-31T10:49:33;3.85;;;2.88;;
4812;SDS011;2420;51.202;8.698;2023-08-31T10:52:15;4.47;;;2.90;;
4812;SDS011;2420;51.202;8.698;2023-08-31T10:54:42;4.45;;;2.80;;
4812;SDS011;2420;51.202;8.698;2023-08-31T10:57:08;5.13;;;2.85;;
4812;SDS011;2420;51.202;8.698;2023-08-31T11:02:30;4.88;;;3.42;;
4812;SDS011;2420;51.202;8.698;2023-08-31T11:04:59;4.07;;;3.15;;
4812;SDS011;2420;51.202;8.698;2023-08-31T11:07:36;4.53;;;3.08;;
4812;SDS011;2420;51.202;8.698;2023-08-31T11:12:49;3.50;;;3.20;;
4812;SDS011;2420;51.202;8.698;2023-08-31T11:15:19;3.40;;;3.10;;
4812;SDS011;2420;51.202;8.698;2023-08-31T11:17:48;4.03;;;3.40;;
4812;SDS011;2420;51.202;8.698;2023-08-31T11:20:16;4.40;;;3.42;;
4812;SDS011;2420;51.202;8.698;2023-08-31T11:22:44;3.92;;;3.40;;
4812;SDS011;2420;51.202;8.698;2023-08-31T11:25:12;3.80;;;3.50;;
4812;SDS011;2420;51.202;8.698;2023-08-31T11:27:38;3.85;;;3.25;;
4812;SDS011;2420;51.202;8.698;2023-08-31T11:30:11;4.55;;;3.45;;
4812;SDS011;2420;51.202;8.698;2023-08-31T11:33:22;3.50;;;3.10;;
4812;SDS011;2420;51.202;8.698;2023-08-31T11:35:36;5.50;;;3.45;;
4812;SDS011;2420;51.202;8.698;2023-08-31T11:38:03;5.35;;;3.55;;
4812;SDS011;2420;51.202;8.698;2023-08-31T11:40:29;4.57;;;3.90;;
4812;SDS011;2420;51.202;8.698;2023-08-31T11:42:55;4.10;;;3.55;;
4812;SDS011;2420;51.202;8.698;2023-08-31T11:45:21;6.13;;;4.15;;
4812;SDS011;2420;51.202;8.698;2023-08-31T11:47:49;7.53;;;5.10;;
4812;SDS011;2420;51.202;8.698;2023-08-31T11:50:15;6.78;;;5.00;;
4812;SDS011;2420;51.202;8.698;2023-08-31T11:52:41;5.00;;;3.33;;
4812;SDS011;2420;51.202;8.698;2023-08-31T11:55:11;4.78;;;3.58;;
4812;SDS011;2420;51.202;8.698;2023-08-31T11:57:37;3.50;;;3.10;;
4812;SDS011;2420;51.202;8.698;2023-08-31T12:00:03;4.03;;;3.20;;
4812;SDS011;2420;51.202;8.698;2023-08-31T12:02:39;3.60;;;2.97;;
4812;SDS011;2420;51.202;8.698;2023-08-31T12:05:05;3.10;;;2.80;;
4812;SDS011;2420;51.202;8.698;2023-08-31T12:07:31;2.67;;;2.40;;
4812;SDS011;2420;51.202;8.698;2023-08-31T12:10:03;4.70;;;3.10;;
4812;SDS011;2420;51.202;8.698;2023-08-31T12:12:29;3.50;;;2.50;;
4812;SDS011;2420;51.202;8.698;2023-08-31T12:14:57;3.75;;;2.65;;
4812;SDS011;2420;51.202;8.698;2023-08-31T12:17:26;4.57;;;2.30;;
4812;SDS011;2420;51.202;8.698;2023-08-31T12:19:51;5.15;;;2.47;;
4812;SDS011;2420;51.202;8.698;2023-08-31T12:22:17;3.80;;;1.92;;
4812;SDS011;2420;51.202;8.698;2023-08-31T12:24:42;2.78;;;2.25;;
4812;SDS011;2420;51.202;8.698;2023-08-31T12:27:08;3.45;;;2.30;;
4812;SDS011;2420;51.202;8.698;2023-08-31T12:29:34;3.13;;;2.08;;
4812;SDS011;2420;51.202;8.698;2023-08-31T12:32:00;3.95;;;2.50;;
4812;SDS011;2420;51.202;8.698;2023-08-31T12:34:26;2.90;;;2.22;;
4812;SDS011;2420;51.202;8.698;2023-08-31T12:36:51;3.80;;;2.20;;
4812;SDS011;2420;51.202;8.698;2023-08-31T12:39:17;2.63;;;2.28;;
4812;SDS011;2420;51.202;8.698;2023-08-31T12:41:43;2.90;;;2.10;;
4812;SDS011;2420;51.202;8.698;2023-08-31T12:44:09;2.95;;;2.00;;
4812;SDS011;2420;51.202;8.698;2023-08-31T12:46:34;5.40;;;1.98;;
4812;SDS011;2420;51.202;8.698;2023-08-31T12:49:00;3.03;;;2.10;;
4812;SDS011;2420;51.202;8.698;2023-08-31T12:51:28;3.63;;;2.13;;
4812;SDS011;2420;51.202;8.698;2023-08-31T12:53:57;2.90;;;1.80;;
4812;SDS011;2420;51.202;8.698;2023-08-31T12:56:23;3.58;;;2.30;;
4812;SDS011;2420;51.202;8.698;2023-08-31T12:58:52;2.17;;;1.73;;
4812;SDS011;2420;51.202;8.698;2023-08-31T13:01:19;3.70;;;2.13;;
4812;SDS011;2420;51.202;8.698;2023-08-31T13:03:45;3.28;;;2.13;;
4812;SDS011;2420;51.202;8.698;2023-08-31T13:06:12;4.65;;;2.38;;
4812;SDS011;2420;51.202;8.698;2023-08-31T13:08:38;3.03;;;1.80;;
4812;SDS011;2420;51.202;8.698;2023-08-31T13:11:03;3.50;;;1.90;;
4812;SDS011;2420;51.202;8.698;2023-08-31T13:13:30;3.30;;;2.08;;
4812;SDS011;2420;51.202;8.698;2023-08-31T13:15:56;2.45;;;1.98;;
4812;SDS011;2420;51.202;8.698;2023-08-31T13:18:22;2.97;;;1.98;;
4812;SDS011;2420;51.202;8.698;2023-08-31T13:20:51;3.42;;;2.10;;
4812;SDS011;2420;51.202;8.698;2023-08-31T13:23:20;3.63;;;1.90;;
4812;SDS011;2420;51.202;8.698;2023-08-31T13:25:46;3.50;;;2.10;;
4812;SDS011;2420;51.202;8.698;2023-08-31T13:28:12;2.90;;;1.80;;
4812;SDS011;2420;51.202;8.698;2023-08-31T13:30:38;2.28;;;1.85;;
4812;SDS011;2420;51.202;8.698;2023-08-31T13:33:04;2.20;;;2.00;;
4812;SDS011;2420;51.202;8.698;2023-08-31T13:35:31;4.03;;;1.73;;
4812;SDS011;2420;51.202;8.698;2023-08-31T13:37:56;2.63;;;1.88;;
4812;SDS011;2420;51.202;8.698;2023-08-31T13:40:22;2.63;;;1.80;;
4812;SDS011;2420;51.202;8.698;2023-08-31T13:42:54;2.55;;;1.70;;
4812;SDS011;2420;51.202;8.698;2023-08-31T13:45:27;3.13;;;1.90;;
4812;SDS011;2420;51.202;8.698;2023-08-31T13:47:54;2.17;;;1.70;;
4812;SDS011;2420;51.202;8.698;2023-08-31T13:50:19;3.13;;;1.80;;
4812;SDS011;2420;51.202;8.698;2023-08-31T13:52:45;2.35;;;1.70;;
4812;SDS011;2420;51.202;8.698;2023-08-31T13:55:11;2.85;;;1.95;;
4812;SDS011;2420;51.202;8.698;2023-08-31T13:57:38;3.03;;;1.90;;
4812;SDS011;2420;51.202;8.698;2023-08-31T14:00:06;3.00;;;1.60;;
4812;SDS011;2420;51.202;8.698;2023-08-31T14:02:34;2.25;;;1.67;;
4812;SDS011;2420;51.202;8.698;2023-08-31T14:05:03;4.53;;;2.00;;
4812;SDS011;2420;51.202;8.698;2023-08-31T14:07:33;2.33;;;1.70;;
4812;SDS011;2420;51.202;8.698;2023-08-31T14:09:59;2.72;;;1.80;;
4812;SDS011;2420;51.202;8.698;2023-08-31T14:12:24;2.28;;;1.63;;
4812;SDS011;2420;51.202;8.698;2023-08-31T14:14:53;2.33;;;1.63;;
4812;SDS011;2420;51.202;8.698;2023-08-31T14:17:19;4.38;;;1.70;;
4812;SDS011;2420;51.202;8.698;2023-08-31T14:19:45;3.20;;;1.60;;
4812;SDS011;2420;51.202;8.698;2023-08-31T14:22:10;1.98;;;1.55;;
4812;SDS011;2420;51.202;8.698;2023-08-31T14:24:37;3.97;;;1.70;;
4812;SDS011;2420;51.202;8.698;2023-08-31T14:27:03;2.78;;;1.70;;
4812;SDS011;2420;51.202;8.698;2023-08-31T14:29:29;2.95;;;1.80;;
4812;SDS011;2420;51.202;8.698;2023-08-31T14:31:54;3.65;;;1.80;;
4812;SDS011;2420;51.202;8.698;2023-08-31T14:34:20;1.80;;;1.60;;
4812;SDS011;2420;51.202;8.698;2023-08-31T14:36:46;2.88;;;1.77;;
4812;SDS011;2420;51.202;8.698;2023-08-31T14:39:12;3.30;;;1.60;;
4812;SDS011;2420;51.202;8.698;2023-08-31T14:41:37;2.90;;;1.75;;
4812;SDS011;2420;51.202;8.698;2023-08-31T14:44:03;2.70;;;1.60;;
4812;SDS011;2420;51.202;8.698;2023-08-31T14:46:29;3.20;;;1.80;;
4812;SDS011;2420;51.202;8.698;2023-08-31T14:48:54;6.43;;;4.50;;
4812;SDS011;2420;51.202;8.698;2023-08-31T14:51:20;5.20;;;3.20;;
4812;SDS011;2420;51.202;8.698;2023-08-31T14:53:45;4.95;;;2.20;;
4812;SDS011;2420;51.202;8.698;2023-08-31T14:56:11;3.92;;;2.05;;
4812;SDS011;2420;51.202;8.698;2023-08-31T14:58:36;2.10;;;1.80;;
4812;SDS011;2420;51.202;8.698;2023-08-31T15:01:02;3.45;;;1.90;;
4812;SDS011;2420;51.202;8.698;2023-08-31T15:03:28;3.28;;;1.80;;
4812;SDS011;2420;51.202;8.698;2023-08-31T15:05:54;2.40;;;1.70;;
4812;SDS011;2420;51.202;8.698;2023-08-31T15:08:21;3.15;;;2.10;;
4812;SDS011;2420;51.202;8.698;2023-08-31T15:11:00;4.57;;;1.70;;
4812;SDS011;2420;51.202;8.698;2023-08-31T15:13:27;2.25;;;1.80;;
4812;SDS011;2420;51.202;8.698;2023-08-31T15:15:52;4.70;;;2.17;;
4812;SDS011;2420;51.202;8.698;2023-08-31T15:18:18;3.28;;;2.00;;
4812;SDS011;2420;51.202;8.698;2023-08-31T15:20:43;4.13;;;2.22;;
4812;SDS011;2420;51.202;8.698;2023-08-31T15:23:09;2.80;;;1.95;;